Time;durP1;ratioP1;P1;durP2;ratioP2;P2;SDS_P1;SDS_P2;PMS_P1;PMS_P2;Temp;Humidity;BMP_temperature;BMP_pressure;BME280_temperature;BME280_humidity;BME280_pressure;Samples;Min_cycle;Max_cycle;Signal;HPM_P1;HPM_P2
2022/06/09 00:00:43;;;;;;;9.03;2.60;;;14.60;99.90;;;;;;5079593;28;20786;-53
2022/06/09 00:03:17;;;;;;;8.47;2.93;;;14.70;99.90;;;;;;5079750;28;20207;-54
2022/06/09 00:05:45;;;;;;;7.43;2.40;;;14.60;99.90;;;;;;5079538;28;21333;-54
2022/06/09 00:08:12;;;;;;;10.73;3.20;;;14.60;99.90;;;;;;5079972;28;20688;-53
2022/06/09 00:10:43;;;;;;;10.17;3.07;;;14.60;99.90;;;;;;5081049;28;20611;-53
2022/06/09 00:13:10;;;;;;;9.33;2.73;;;14.60;99.90;;;;;;5080135;28;21787;-54
2022/06/09 00:15:37;;;;;;;11.93;2.60;;;14.50;99.90;;;;;;5080848;28;20226;-54
2022/06/09 00:18:04;;;;;;;11.30;2.97;;;14.50;99.90;;;;;;5081764;28;20623;-54
2022/06/09 00:20:31;;;;;;;10.13;2.73;;;14.50;99.90;;;;;;5080566;28;20644;-53
2022/06/09 00:22:58;;;;;;;11.40;3.67;;;14.60;99.90;;;;;;5079377;28;22236;-54
2022/06/09 00:25:25;;;;;;;11.53;2.37;;;14.50;99.90;;;;;;5081708;28;20687;-54
2022/06/09 00:27:52;;;;;;;11.03;3.47;;;14.50;99.90;;;;;;5077041;28;20778;-53
2022/06/09 00:30:19;;;;;;;9.97;2.80;;;14.40;99.90;;;;;;5077931;28;20327;-54
2022/06/09 00:32:46;;;;;;;9.80;3.40;;;14.50;99.90;;;;;;5057361;28;20650;-54
2022/06/09 00:35:14;;;;;;;15.80;3.50;;;14.40;99.90;;;;;;5082740;28;20244;-54
2022/06/09 00:37:40;;;;;;;11.73;3.53;;;14.40;99.90;;;;;;5079383;28;20209;-55
2022/06/09 00:40:10;;;;;;;12.30;3.13;;;14.40;99.90;;;;;;5079072;28;20607;-53
2022/06/09 00:42:38;;;;;;;10.10;3.90;;;14.40;99.90;;;;;;5080240;28;20191;-54
2022/06/09 00:45:43;;;;;;;9.30;2.90;;;14.50;99.90;;;;;;5084543;28;20193;-54
2022/06/09 00:48:25;;;;;;;11.93;3.07;;;14.40;99.90;;;;;;5003017;28;20209;-54
2022/06/09 00:51:16;;;;;;;12.43;3.23;;;14.40;99.90;;;;;;5008653;28;20228;-53
2022/06/09 00:53:44;;;;;;;12.13;3.60;;;14.30;99.90;;;;;;5000384;28;20412;-54
2022/06/09 00:56:13;;;;;;;10.63;3.37;;;14.30;99.90;;;;;;4991378;28;20694;-54
2022/06/09 00:58:43;;;;;;;14.67;3.67;;;14.20;99.90;;;;;;5006367;28;20251;-53
2022/06/09 01:01:13;;;;;;;8.73;3.53;;;14.20;99.90;;;;;;5000495;28;20334;-54
2022/06/09 01:03:48;;;;;;;15.23;3.50;;;14.10;99.90;;;;;;5000662;28;20229;-54
2022/06/09 01:06:22;;;;;;;13.60;3.83;;;14.20;99.90;;;;;;5003054;28;20228;-52
2022/06/09 01:09:06;;;;;;;6.87;3.67;;;14.10;99.90;;;;;;5001866;28;21236;-54
2022/06/09 01:11:34;;;;;;;15.67;3.70;;;14.20;99.90;;;;;;5000350;28;20292;-54
2022/06/09 01:14:01;;;;;;;8.77;3.27;;;14.10;99.90;;;;;;5001460;28;20301;-54
2022/06/09 01:16:40;;;;;;;13.13;3.93;;;14.10;99.90;;;;;;5004344;28;20216;-54
2022/06/09 01:19:12;;;;;;;8.83;3.43;;;14.10;99.90;;;;;;5001510;28;20724;-54
2022/06/09 01:22:16;;;;;;;11.20;3.90;;;14.10;99.90;;;;;;5024825;28;20821;-53
2022/06/09 01:25:01;;;;;;;14.17;4.20;;;14.10;99.90;;;;;;5082396;28;20191;-53
2022/06/09 01:27:53;;;;;;;14.70;4.00;;;14.10;99.90;;;;;;5077788;28;20302;-53
2022/06/09 01:30:22;;;;;;;11.67;3.50;;;14.00;99.90;;;;;;5082529;28;20305;-54
2022/06/09 01:33:07;;;;;;;18.73;4.53;;;14.00;99.90;;;;;;5084597;28;20307;-54
2022/06/09 01:35:51;;;;;;;10.97;3.60;;;14.00;99.90;;;;;;5081523;28;20290;-54
2022/06/09 01:38:18;;;;;;;12.97;3.80;;;14.10;99.90;;;;;;5083739;28;20218;-54
2022/06/09 01:40:45;;;;;;;14.33;4.30;;;14.20;99.90;;;;;;5081331;28;20243;-53
2022/06/09 01:43:12;;;;;;;9.67;3.90;;;14.20;99.90;;;;;;5082097;28;20727;-54
2022/06/09 01:45:52;;;;;;;13.80;4.33;;;14.30;99.90;;;;;;5083999;28;20213;-53
2022/06/09 01:48:20;;;;;;;12.00;3.97;;;14.20;99.90;;;;;;5083155;28;20253;-54
2022/06/09 01:51:24;;;;;;;12.17;3.80;;;14.20;99.90;;;;;;5084541;28;20209;-52
2022/06/09 01:54:00;;;;;;;12.57;4.10;;;14.20;99.90;;;;;;5017266;28;20710;-53
2022/06/09 01:56:39;;;;;;;16.23;4.40;;;14.20;99.90;;;;;;5010553;28;20201;-53
2022/06/09 01:59:11;;;;;;;12.37;4.03;;;14.20;99.90;;;;;;5014243;28;20291;-53
2022/06/09 02:01:48;;;;;;;15.63;4.47;;;14.20;99.90;;;;;;5015591;28;20219;-53
2022/06/09 02:04:23;;;;;;;11.83;4.17;;;14.30;99.90;;;;;;5014879;28;20209;-54
2022/06/09 02:06:52;;;;;;;15.63;4.60;;;14.30;99.90;;;;;;5014242;28;20807;-53
2022/06/09 02:09:22;;;;;;;13.37;5.43;;;14.30;99.90;;;;;;5016545;28;20255;-53
2022/06/09 02:11:53;;;;;;;18.03;5.63;;;14.30;99.90;;;;;;5012086;28;20938;-53
2022/06/09 02:14:23;;;;;;;15.83;5.37;;;14.30;99.90;;;;;;5019559;28;20243;-53
2022/06/09 02:16:50;;;;;;;17.33;5.53;;;14.30;99.90;;;;;;5013799;28;20363;-53
2022/06/09 02:19:17;;;;;;;17.63;5.67;;;14.30;99.90;;;;;;5011483;28;20224;-53
2022/06/09 02:21:44;;;;;;;20.50;5.37;;;14.40;99.90;;;;;;5014835;28;20225;-55
2022/06/09 02:24:11;;;;;;;14.63;5.00;;;14.30;99.90;;;;;;5017736;28;20236;-53
2022/06/09 02:26:38;;;;;;;14.83;6.17;;;14.30;99.90;;;;;;5010447;28;20297;-53
2022/06/09 02:29:05;;;;;;;21.10;8.10;;;14.30;99.90;;;;;;5076027;28;20732;-53
2022/06/09 02:31:32;;;;;;;18.40;5.60;;;14.30;99.90;;;;;;5084004;28;20238;-53
2022/06/09 02:33:59;;;;;;;19.70;5.83;;;14.30;99.90;;;;;;5062773;28;20210;-54
2022/06/09 02:36:26;;;;;;;19.70;5.40;;;14.30;99.90;;;;;;5082757;28;20209;-53
2022/06/09 02:38:53;;;;;;;21.13;5.80;;;14.20;99.90;;;;;;5084839;28;20211;-53
2022/06/09 02:41:20;;;;;;;17.93;5.67;;;14.30;99.90;;;;;;5080747;28;20206;-53
2022/06/09 02:43:47;;;;;;;20.33;6.20;;;14.30;99.90;;;;;;5080933;28;20554;-53
2022/06/09 02:46:14;;;;;;;17.77;5.77;;;14.30;99.90;;;;;;5081851;28;20204;-53
2022/06/09 02:48:41;;;;;;;19.10;4.93;;;14.30;99.90;;;;;;5080764;28;20204;-53
2022/06/09 02:51:35;;;;;;;14.00;5.30;;;14.30;99.90;;;;;;5080992;28;20665;-53
2022/06/09 02:54:10;;;;;;;16.93;5.60;;;14.30;99.90;;;;;;5040448;28;20210;-53
2022/06/09 02:56:37;;;;;;;20.17;6.00;;;14.30;99.90;;;;;;5037095;28;20254;-52
2022/06/09 02:59:04;;;;;;;18.07;5.80;;;14.30;99.90;;;;;;5042372;28;20292;-52
2022/06/09 03:01:31;;;;;;;15.57;4.50;;;14.30;99.90;;;;;;5041696;28;20228;-54
2022/06/09 03:03:58;;;;;;;15.90;4.70;;;14.30;99.90;;;;;;5039227;28;20206;-53
2022/06/09 03:06:25;;;;;;;24.03;5.20;;;14.30;99.90;;;;;;5034888;28;20201;-54
2022/06/09 03:08:52;;;;;;;16.60;4.60;;;14.30;99.90;;;;;;5041897;28;20726;-54
2022/06/09 03:11:19;;;;;;;29.27;8.43;;;14.40;99.90;;;;;;5045585;28;20283;-53
2022/06/09 03:13:46;;;;;;;14.67;5.30;;;14.30;99.90;;;;;;5043033;28;20235;-53
2022/06/09 03:16:14;;;;;;;21.80;5.50;;;14.30;99.90;;;;;;5041117;28;20248;-53
2022/06/09 03:18:43;;;;;;;18.90;5.37;;;14.20;99.90;;;;;;5041516;28;20220;-53
2022/06/09 03:21:11;;;;;;;20.20;5.30;;;14.20;99.90;;;;;;5043483;28;20348;-53
2022/06/09 03:23:38;;;;;;;21.30;5.27;;;14.30;99.90;;;;;;5045231;28;20248;-53
2022/06/09 03:26:06;;;;;;;21.67;5.30;;;14.30;99.90;;;;;;5037672;28;20287;-52
2022/06/09 03:28:34;;;;;;;23.17;5.97;;;14.20;99.90;;;;;;5039658;28;20588;-53
2022/06/09 03:31:01;;;;;;;18.27;5.53;;;14.20;99.90;;;;;;5044209;28;20230;-54
2022/06/09 03:33:28;;;;;;;21.03;5.33;;;14.20;99.90;;;;;;5043576;28;20278;-54
2022/06/09 03:35:54;;;;;;;18.70;5.73;;;14.30;99.90;;;;;;5041100;28;20214;-54
2022/06/09 03:38:21;;;;;;;20.47;6.37;;;14.30;99.90;;;;;;5038310;28;20219;-53
2022/06/09 03:40:48;;;;;;;14.97;5.97;;;14.30;99.90;;;;;;5039325;28;20195;-53
2022/06/09 03:43:15;;;;;;;15.00;5.13;;;14.30;99.90;;;;;;5041019;28;20246;-53
2022/06/09 03:45:42;;;;;;;19.50;5.23;;;14.30;99.90;;;;;;5042095;28;20202;-54
2022/06/09 03:48:09;;;;;;;20.30;5.80;;;14.40;99.90;;;;;;5039363;28;20231;-53
2022/06/09 03:50:36;;;;;;;14.97;5.07;;;14.20;99.90;;;;;;5040703;28;20304;-54
2022/06/09 03:53:03;;;;;;;19.63;5.93;;;14.10;99.90;;;;;;5068764;28;20264;-52
2022/06/09 03:55:30;;;;;;;17.43;5.70;;;14.10;99.90;;;;;;5073692;28;20381;-52
2022/06/09 03:57:57;;;;;;;21.40;5.93;;;14.20;99.90;;;;;;5080221;28;20204;-53
2022/06/09 04:00:28;;;;;;;17.20;5.90;;;14.10;99.90;;;;;;5078954;28;20193;-53
2022/06/09 04:02:55;;;;;;;19.87;5.33;;;14.10;99.90;;;;;;5085286;28;20198;-53
2022/06/09 04:05:22;;;;;;;21.27;5.43;;;14.10;99.90;;;;;;5079916;28;20202;-53
2022/06/09 04:07:50;;;;;;;18.30;5.73;;;14.00;99.90;;;;;;5085309;28;20237;-53
2022/06/09 04:10:23;;;;;;;21.53;5.43;;;14.00;99.90;;;;;;5078593;28;20311;-54
2022/06/09 04:12:50;;;;;;;15.73;5.20;;;14.10;99.90;;;;;;5082232;28;20228;-54
2022/06/09 04:15:18;;;;;;;19.83;5.37;;;14.20;99.90;;;;;;5088926;28;20676;-54
2022/06/09 04:17:45;;;;;;;13.27;4.83;;;14.20;99.90;;;;;;5088404;28;20224;-54
2022/06/09 04:20:15;;;;;;;19.77;5.23;;;14.30;99.90;;;;;;5084720;28;20694;-53
2022/06/09 04:22:42;;;;;;;19.87;5.17;;;14.20;99.90;;;;;;5084726;28;20226;-53
2022/06/09 04:25:15;;;;;;;14.47;5.27;;;14.10;99.90;;;;;;5080197;28;20191;-54
2022/06/09 04:27:42;;;;;;;13.20;5.00;;;14.10;99.90;;;;;;5082845;28;20253;-53
2022/06/09 04:30:10;;;;;;;18.80;5.10;;;14.10;99.90;;;;;;5085054;28;20195;-54
2022/06/09 04:32:37;;;;;;;13.63;4.90;;;14.30;99.90;;;;;;5087771;28;20784;-53
2022/06/09 04:35:04;;;;;;;13.53;5.00;;;14.30;99.90;;;;;;5081641;28;20202;-53
2022/06/09 04:40:17;;;;;;;12.60;4.60;;;14.30;99.90;;;;;;5081572;28;20550;-54
2022/06/09 04:42:43;;;;;;;17.67;4.60;;;14.30;99.90;;;;;;5087383;28;20203;-55
2022/06/09 04:45:10;;;;;;;17.47;5.27;;;14.30;99.90;;;;;;5070038;28;20720;-54
2022/06/09 04:47:37;;;;;;;15.57;5.50;;;14.10;99.90;;;;;;5083566;28;20198;-54
2022/06/09 04:50:04;;;;;;;15.57;4.87;;;14.30;99.90;;;;;;5080038;28;20294;-53
2022/06/09 04:52:31;;;;;;;14.83;4.90;;;14.30;99.90;;;;;;5086495;28;20264;-54
2022/06/09 04:54:58;;;;;;;16.70;4.57;;;14.30;99.90;;;;;;5083330;28;21880;-53
2022/06/09 04:57:25;;;;;;;14.83;4.93;;;14.20;99.90;;;;;;5082240;28;20253;-54
2022/06/09 04:59:53;;;;;;;16.67;5.43;;;14.20;99.90;;;;;;5084271;28;20786;-54
2022/06/09 05:02:20;;;;;;;13.87;4.57;;;14.20;99.90;;;;;;5089566;28;20356;-53
2022/06/09 05:04:47;;;;;;;16.33;5.10;;;14.20;99.90;;;;;;5084332;28;20198;-53
2022/06/09 05:07:14;;;;;;;15.93;4.20;;;14.20;99.90;;;;;;5091896;28;20296;-53
2022/06/09 05:09:41;;;;;;;18.70;5.97;;;14.20;99.90;;;;;;5089353;28;20201;-53
2022/06/09 05:12:08;;;;;;;10.37;4.47;;;14.20;99.90;;;;;;5084603;28;20194;-54
2022/06/09 05:14:35;;;;;;;17.90;4.83;;;14.20;99.90;;;;;;5086665;28;20206;-53
2022/06/09 05:17:02;;;;;;;14.33;4.50;;;14.40;99.90;;;;;;5087217;28;20211;-54
2022/06/09 05:19:29;;;;;;;20.33;4.67;;;14.40;99.90;;;;;;5083309;28;20709;-52
2022/06/09 05:21:56;;;;;;;15.57;4.40;;;14.50;99.90;;;;;;5084109;28;20205;-53
2022/06/09 05:24:23;;;;;;;12.57;4.47;;;14.50;99.90;;;;;;5083984;28;20250;-53
2022/06/09 05:26:50;;;;;;;17.67;4.00;;;14.50;99.90;;;;;;5088485;28;20360;-53
2022/06/09 05:29:16;;;;;;;13.67;4.23;;;14.50;99.90;;;;;;5087070;28;20345;-54
2022/06/09 05:31:43;;;;;;;12.30;3.87;;;14.60;99.90;;;;;;5085357;28;20290;-54
2022/06/09 05:34:10;;;;;;;13.07;4.27;;;14.50;99.90;;;;;;5084737;28;20209;-53
2022/06/09 05:36:38;;;;;;;9.43;3.60;;;14.50;99.90;;;;;;5082886;28;20201;-54
2022/06/09 05:44:51;;;;;;;12.30;3.40;;;14.60;99.90;;;;;;5079342;28;20216;-53
2022/06/09 05:47:21;;;;;;;14.60;3.20;;;14.60;99.90;;;;;;5083738;28;20226;-54
2022/06/09 05:49:52;;;;;;;7.43;3.10;;;14.60;99.90;;;;;;5079030;28;20224;-52
2022/06/09 05:52:25;;;;;;;8.93;2.47;;;14.50;99.90;;;;;;5081554;28;20241;-53
2022/06/09 05:54:53;;;;;;;5.47;2.30;;;14.40;99.90;;;;;;5081604;28;20202;-52
2022/06/09 05:57:21;;;;;;;5.43;1.93;;;14.50;99.90;;;;;;5084794;28;20621;-53
2022/06/09 05:59:49;;;;;;;6.83;2.03;;;14.40;99.90;;;;;;5079482;28;22060;-53
2022/06/09 06:02:19;;;;;;;5.27;1.70;;;14.40;99.90;;;;;;5061504;28;20204;-53
2022/06/09 06:04:46;;;;;;;4.93;1.87;;;14.40;99.90;;;;;;5077889;28;20225;-53
2022/06/09 06:07:13;;;;;;;4.30;1.40;;;14.40;99.90;;;;;;5078518;28;20274;-54
2022/06/09 06:09:40;;;;;;;5.87;1.77;;;14.40;99.90;;;;;;5083471;28;20236;-53
2022/06/09 06:12:08;;;;;;;4.83;1.90;;;14.40;99.90;;;;;;5062122;28;20344;-53
2022/06/09 06:14:35;;;;;;;6.27;1.70;;;14.40;99.90;;;;;;5084007;28;20301;-54
2022/06/09 06:17:03;;;;;;;5.20;1.80;;;14.50;99.90;;;;;;5085619;28;20205;-53
2022/06/09 06:19:30;;;;;;;5.77;1.67;;;14.60;99.90;;;;;;5066980;28;20208;-52
2022/06/09 06:21:57;;;;;;;3.67;1.77;;;14.60;99.90;;;;;;5083926;28;20745;-53
2022/06/09 06:24:24;;;;;;;1.87;1.57;;;14.70;99.90;;;;;;5079354;28;20195;-52
2022/06/09 06:26:52;;;;;;;4.77;1.80;;;14.60;99.90;;;;;;5084052;28;20195;-54
2022/06/09 06:29:23;;;;;;;4.23;2.03;;;14.80;99.90;;;;;;5077851;28;20290;-53
2022/06/09 06:31:50;;;;;;;3.27;1.67;;;14.80;99.90;;;;;;5060979;28;20199;-53
2022/06/09 06:34:17;;;;;;;4.30;3.27;;;14.90;99.90;;;;;;5078255;28;20468;-53
2022/06/09 06:36:45;;;;;;;2.83;1.43;;;14.90;99.90;;;;;;5073303;28;20204;-54
2022/06/09 06:39:11;;;;;;;3.50;1.57;;;14.80;99.90;;;;;;5083857;28;20285;-54
2022/06/09 06:41:39;;;;;;;2.80;1.60;;;14.90;99.90;;;;;;5074282;28;20209;-54
2022/06/09 06:44:06;;;;;;;2.40;1.20;;;14.90;99.90;;;;;;5079804;28;20206;-54
2022/06/09 06:46:33;;;;;;;5.37;1.40;;;14.90;99.90;;;;;;5078138;28;20223;-54
2022/06/09 06:49:00;;;;;;;1.63;1.00;;;15.00;99.90;;;;;;5079485;28;20208;-54
2022/06/09 06:51:27;;;;;;;2.63;1.73;;;14.80;99.90;;;;;;5057164;28;20331;-52
2022/06/09 06:53:54;;;;;;;1.37;1.00;;;14.80;99.90;;;;;;5064759;28;20418;-53
2022/06/09 06:56:21;;;;;;;6.80;1.40;;;14.80;99.90;;;;;;5073854;28;20207;-54
2022/06/09 06:58:48;;;;;;;1.20;1.00;;;15.00;99.90;;;;;;5079073;28;20214;-54
2022/06/09 07:01:15;;;;;;;1.50;1.20;;;14.90;99.90;;;;;;5074367;28;20196;-53
2022/06/09 07:03:42;;;;;;;1.70;0.90;;;15.00;99.90;;;;;;5071024;28;20243;-54
2022/06/09 07:06:09;;;;;;;2.57;1.10;;;15.10;99.90;;;;;;5077362;28;20198;-53
2022/06/09 07:08:36;;;;;;;1.17;0.93;;;15.00;99.90;;;;;;5074864;28;20195;-53
2022/06/09 07:11:05;;;;;;;3.37;1.53;;;15.00;99.90;;;;;;5071415;28;20772;-54
2022/06/09 07:13:33;;;;;;;1.33;1.10;;;15.00;99.90;;;;;;5071320;28;20210;-54
2022/06/09 07:16:00;;;;;;;1.43;1.10;;;15.10;99.90;;;;;;5076091;28;20295;-52
2022/06/09 07:18:29;;;;;;;2.13;1.10;;;15.10;99.90;;;;;;5076303;28;20801;-52
2022/06/09 07:20:57;;;;;;;4.00;1.30;;;15.00;99.90;;;;;;5077937;28;20211;-54
2022/06/09 07:23:26;;;;;;;4.20;1.20;;;15.10;99.90;;;;;;5070347;28;20230;-52
2022/06/09 07:25:54;;;;;;;2.13;1.20;;;15.20;99.90;;;;;;5075175;28;20648;-54
2022/06/09 07:28:21;;;;;;;3.23;1.10;;;15.10;99.90;;;;;;5056247;28;20210;-54
2022/06/09 07:30:48;;;;;;;3.07;1.00;;;15.10;99.90;;;;;;5071525;28;20195;-53
2022/06/09 07:33:15;;;;;;;2.10;1.00;;;15.30;99.90;;;;;;5073350;28;20248;-53
2022/06/09 07:35:42;;;;;;;1.60;0.70;;;15.30;99.90;;;;;;5073186;28;20228;-53
2022/06/09 07:38:11;;;;;;;1.33;0.97;;;15.30;99.90;;;;;;5074139;28;20205;-53
2022/06/09 07:40:40;;;;;;;0.73;0.67;;;15.50;99.90;;;;;;5076515;28;20206;-53
2022/06/09 07:43:08;;;;;;;1.37;1.00;;;15.50;99.90;;;;;;5075271;28;20237;-52
2022/06/09 07:45:37;;;;;;;1.73;0.67;;;15.70;99.90;;;;;;5081318;28;20249;-53
2022/06/09 07:48:04;;;;;;;1.17;0.70;;;15.80;99.90;;;;;;5068453;28;20208;-53
2022/06/09 07:50:37;;;;;;;0.80;0.67;;;16.00;99.90;;;;;;5074506;28;20258;-52
2022/06/09 07:53:04;;;;;;;2.60;0.80;;;16.20;99.90;;;;;;5086031;28;20279;-53
2022/06/09 07:55:32;;;;;;;0.87;0.67;;;16.20;99.90;;;;;;5075519;28;20386;-52
2022/06/09 07:57:59;;;;;;;1.17;0.50;;;16.10;99.90;;;;;;5078602;28;20237;-53
2022/06/09 08:00:26;;;;;;;1.73;0.70;;;16.30;99.90;;;;;;5080114;28;20248;-53
2022/06/09 08:02:54;;;;;;;2.17;0.70;;;16.50;99.90;;;;;;5075691;28;20672;-54
2022/06/09 08:05:23;;;;;;;1.73;0.60;;;16.40;99.90;;;;;;5081103;28;20206;-53
2022/06/09 08:07:50;;;;;;;1.70;0.60;;;16.50;99.90;;;;;;5082438;28;20226;-54
2022/06/09 08:10:20;;;;;;;1.03;0.83;;;16.30;99.90;;;;;;5082562;28;20258;-53
2022/06/09 08:12:50;;;;;;;2.30;0.97;;;16.20;99.90;;;;;;5070143;28;20681;-54
2022/06/09 08:15:17;;;;;;;1.70;1.00;;;16.20;99.90;;;;;;5081042;28;20294;-54
2022/06/09 08:17:44;;;;;;;2.50;0.70;;;16.20;99.90;;;;;;5080523;28;20214;-53
2022/06/09 08:20:12;;;;;;;4.13;1.00;;;16.00;99.90;;;;;;5071393;28;20218;-53
2022/06/09 08:23:01;;;;;;;2.17;0.87;;;15.90;99.90;;;;;;5078291;28;20291;-53
2022/06/09 08:25:28;;;;;;;7.07;1.83;;;15.90;99.90;;;;;;5079375;28;20204;-53
2022/06/09 08:27:55;;;;;;;2.90;1.13;;;16.00;99.90;;;;;;5081883;28;20214;-53
2022/06/09 08:30:23;;;;;;;4.33;1.23;;;16.10;99.90;;;;;;5079128;28;20201;-54
2022/06/09 08:32:50;;;;;;;1.63;1.00;;;15.90;99.90;;;;;;5078559;28;20207;-54
2022/06/09 08:35:18;;;;;;;4.40;1.00;;;15.90;99.90;;;;;;5087414;28;20667;-53
2022/06/09 08:37:48;;;;;;;4.03;1.00;;;16.00;99.90;;;;;;5089026;28;20209;-53
2022/06/09 08:40:23;;;;;;;3.67;1.30;;;15.80;99.90;;;;;;5083648;28;20253;-54
2022/06/09 08:43:09;;;;;;;4.57;1.63;;;15.80;99.90;;;;;;5076044;28;20199;-54
2022/06/09 08:45:40;;;;;;;4.07;1.43;;;15.80;99.90;;;;;;5072651;28;20242;-54
2022/06/09 08:48:17;;;;;;;3.47;1.30;;;15.80;99.90;;;;;;5078144;28;20554;-53
2022/06/09 08:51:08;;;;;;;1.13;1.03;;;15.70;99.90;;;;;;5076423;28;20670;-54
2022/06/09 08:53:43;;;;;;;2.37;1.20;;;15.70;99.90;;;;;;5062436;28;20299;-53
2022/06/09 08:56:27;;;;;;;3.57;1.10;;;15.70;99.90;;;;;;5076581;28;20290;-53
2022/06/09 08:58:56;;;;;;;2.10;1.50;;;15.90;99.90;;;;;;5081918;28;20200;-54
2022/06/09 09:01:44;;;;;;;2.23;1.20;;;15.80;99.90;;;;;;5082408;28;20208;-54
2022/06/09 09:04:11;;;;;;;2.60;1.43;;;15.80;99.90;;;;;;5074970;28;20269;-53
2022/06/09 09:06:50;;;;;;;3.33;1.50;;;15.90;99.90;;;;;;5079801;28;20232;-54
2022/06/09 09:09:24;;;;;;;3.07;1.47;;;15.80;99.90;;;;;;5076198;28;20207;-54
2022/06/09 09:12:15;;;;;;;4.40;2.10;;;16.10;99.90;;;;;;5074434;28;20291;-54
2022/06/09 09:14:55;;;;;;;1.90;1.70;;;16.30;99.90;;;;;;5077693;28;20198;-54
2022/06/09 09:17:34;;;;;;;5.43;2.10;;;16.40;99.90;;;;;;5080128;28;20198;-55
2022/06/09 09:20:14;;;;;;;5.47;1.80;;;16.30;99.90;;;;;;5079832;28;20208;-54
2022/06/09 09:23:09;;;;;;;3.47;1.73;;;16.50;99.90;;;;;;5079800;28;20230;-54
2022/06/09 09:25:44;;;;;;;3.70;1.90;;;16.70;99.90;;;;;;5080260;28;20650;-54
2022/06/09 09:28:22;;;;;;;4.93;1.77;;;17.00;99.90;;;;;;5076797;28;20216;-54
2022/06/09 09:31:00;;;;;;;3.40;1.83;;;17.00;99.90;;;;;;5076367;28;20194;-54
2022/06/09 09:33:29;;;;;;;1.90;1.70;;;17.00;99.90;;;;;;5079400;28;20214;-53
2022/06/09 09:36:04;;;;;;;4.30;1.40;;;17.10;99.90;;;;;;5080022;28;20197;-53
2022/06/09 09:38:50;;;;;;;3.50;1.37;;;17.30;99.90;;;;;;5076522;28;20576;-53
2022/06/09 09:41:46;;;;;;;5.10;1.70;;;17.30;99.90;;;;;;5073458;28;20240;-54
2022/06/09 09:44:23;;;;;;;2.77;1.40;;;17.50;99.90;;;;;;5066896;28;20218;-53
2022/06/09 09:46:56;;;;;;;4.73;2.13;;;17.50;99.90;;;;;;5081077;28;20267;-54
2022/06/09 09:49:31;;;;;;;1.53;1.37;;;17.90;99.90;;;;;;5072492;28;20250;-54
2022/06/09 09:51:59;;;;;;;5.07;1.60;;;18.00;99.90;;;;;;5075858;28;21029;-53
2022/06/09 09:54:38;;;;;;;4.57;2.07;;;18.00;99.90;;;;;;5076786;28;20668;-54
2022/06/09 09:57:16;;;;;;;3.87;1.57;;;18.20;99.90;;;;;;5078444;28;20252;-54
2022/06/09 09:59:47;;;;;;;5.33;1.47;;;18.10;99.90;;;;;;5078864;28;20251;-54
2022/06/09 10:08:40;;;;;;;3.63;1.60;;;18.10;99.90;;;;;;5077732;28;20695;-53
2022/06/09 10:14:44;;;;;;;3.90;1.83;;;18.20;99.90;;;;;;5074823;28;20277;-53
2022/06/09 10:17:29;;;;;;;5.20;1.90;;;18.30;1.00;;;;;;5082662;28;20278;-53
2022/06/09 10:20:14;;;;;;;3.90;1.73;;;18.30;1.00;;;;;;5080200;28;20316;-54
2022/06/09 10:22:58;;;;;;;4.50;1.20;;;18.50;1.00;;;;;;5081594;28;20771;-54
2022/06/09 10:25:28;;;;;;;6.30;1.60;;;18.60;99.90;;;;;;5080292;28;20193;-53
2022/06/09 10:28:36;;;;;;;2.23;1.30;;;18.90;99.90;;;;;;5075338;28;20197;-54
2022/06/09 10:31:28;;;;;;;4.67;1.60;;;19.30;99.90;;;;;;5072903;28;20604;-54
2022/06/09 10:34:13;;;;;;;2.97;1.60;;;19.60;99.90;;;;;;5083767;28;20755;-53
2022/06/09 10:36:53;;;;;;;3.37;1.40;;;19.30;1.00;;;;;;5075085;28;20211;-53
2022/06/09 10:39:32;;;;;;;4.23;1.47;;;19.10;1.00;;;;;;5081920;28;20221;-54
2022/06/09 10:42:15;;;;;;;7.13;1.70;;;19.20;99.90;;;;;;5077264;28;20208;-54
2022/06/09 10:44:48;;;;;;;5.07;1.70;;;19.40;99.90;;;;;;5076409;28;20241;-54
2022/06/09 10:56:53;;;;;;;5.43;1.43;;;19.10;1.00;;;;;;5081018;28;20255;-54
2022/06/09 10:59:31;;;;;;;6.87;1.80;;;19.50;1.00;;;;;;5082362;28;20210;-54
2022/06/09 11:01:57;;;;;;;4.40;1.50;;;19.80;39.60;;;;;;5082462;28;20190;-53
2022/06/09 11:04:28;;;;;;;3.53;1.27;;;19.80;99.90;;;;;;5081901;28;20241;-54
2022/06/09 11:07:26;;;;;;;5.93;1.43;;;19.60;1.00;;;;;;5080711;28;20202;-54
2022/06/09 11:10:26;;;;;;;2.77;1.23;;;19.80;1.00;;;;;;5077323;28;20655;-54
2022/06/09 11:13:11;;;;;;;6.03;1.50;;;19.90;99.90;;;;;;5047807;28;20655;-54
2022/06/09 11:16:03;;;;;;;3.17;1.50;;;19.60;1.00;;;;;;5072554;28;21867;-55
2022/06/09 11:19:00;;;;;;;5.47;1.23;;;19.50;1.00;;;;;;5079495;28;20291;-54
2022/06/09 11:21:35;;;;;;;4.80;1.30;;;19.60;1.00;;;;;;5076272;28;20303;-55
2022/06/09 11:24:13;;;;;;;7.20;1.30;;;19.50;99.90;;;;;;5073245;28;20309;-54
2022/06/09 11:26:40;;;;;;;4.73;1.50;;;19.80;1.00;;;;;;5075200;28;20372;-54
2022/06/09 11:29:46;;;;;;;3.57;1.53;;;20.60;99.90;;;;;;5075429;28;20278;-54
2022/06/09 11:32:45;;;;;;;3.87;1.27;;;21.00;99.90;;;;;;5072382;28;20703;-53
2022/06/09 11:35:33;;;;;;;5.53;1.43;;;21.20;1.00;;;;;;5076722;28;20234;-54
2022/06/09 11:38:18;;;;;;;11.10;1.90;;;21.30;99.90;;;;;;5076320;28;20252;-53
2022/06/09 11:41:11;;;;;;;10.87;1.63;;;21.30;99.90;;;;;;5071361;28;20249;-53
2022/06/09 11:44:20;;;;;;;4.07;1.20;;;21.50;1.00;;;;;;5077841;28;20201;-54
2022/06/09 11:46:51;;;;;;;6.90;1.40;;;21.60;99.90;;;;;;5073874;28;20261;-53
2022/06/09 11:49:36;;;;;;;8.83;1.83;;;21.20;1.00;;;;;;5078094;28;20206;-53
2022/06/09 11:52:16;;;;;;;7.73;2.00;;;21.20;1.00;;;;;;5075631;28;20622;-53
2022/06/09 11:54:50;;;;;;;6.70;1.70;;;21.10;1.00;;;;;;5071405;28;20203;-54
2022/06/09 11:57:35;;;;;;;3.83;1.50;;;20.90;7.40;;;;;;5066117;28;20731;-53
2022/06/09 12:00:26;;;;;;;4.10;1.37;;;20.50;1.00;;;;;;5065252;28;20264;-53
2022/06/09 12:03:23;;;;;;;2.73;1.43;;;20.30;1.00;;;;;;5079443;28;20712;-53
2022/06/09 12:06:08;;;;;;;5.60;1.80;;;20.10;99.90;;;;;;5077716;28;20295;-54
2022/06/09 12:08:41;;;;;;;3.03;1.40;;;20.10;1.00;;;;;;5076468;28;20230;-54
2022/06/09 12:11:14;;;;;;;7.10;2.00;;;20.50;1.00;;;;;;5081994;28;20198;-54
2022/06/09 12:14:01;;;;;;;4.43;1.37;;;20.60;1.00;;;;;;5066389;28;20288;-54
2022/06/09 12:16:36;;;;;;;3.17;1.10;;;20.50;1.00;;;;;;5067812;28;20209;-53
2022/06/09 12:19:15;;;;;;;2.87;1.17;;;20.40;1.00;;;;;;5071483;28;20302;-54
2022/06/09 12:21:55;;;;;;;4.17;1.30;;;20.60;1.00;;;;;;5068211;28;20214;-54
2022/06/09 12:24:33;;;;;;;3.83;1.53;;;20.50;1.00;;;;;;5069774;28;20206;-54
2022/06/09 12:27:36;;;;;;;2.00;1.00;;;20.10;1.00;;;;;;5070601;28;20195;-53
2022/06/09 12:30:03;;;;;;;6.13;1.43;;;20.10;99.90;;;;;;5073012;28;20699;-53
2022/06/09 12:32:45;;;;;;;4.63;1.30;;;20.00;1.00;;;;;;5081362;28;20655;-53
2022/06/09 12:35:39;;;;;;;6.57;1.70;;;20.40;1.00;;;;;;5075317;28;20334;-53
2022/06/09 12:38:18;;;;;;;4.00;1.37;;;20.50;1.00;;;;;;5075013;28;20629;-55
2022/06/09 12:40:51;;;;;;;3.57;1.57;;;20.60;99.90;;;;;;5069869;28;20626;-54
2022/06/09 12:43:26;;;;;;;4.60;1.53;;;20.70;99.90;;;;;;5053524;28;20205;-54
2022/06/09 12:46:06;;;;;;;3.13;1.30;;;20.50;1.00;;;;;;5072009;28;20207;-53
2022/06/09 12:48:35;;;;;;;3.47;1.30;;;20.30;99.90;;;;;;5072198;28;20302;-54
2022/06/09 12:51:08;;;;;;;3.70;1.40;;;20.40;61.10;;;;;;5070988;28;20607;-54
2022/06/09 12:53:39;;;;;;;3.50;1.30;;;20.50;1.00;;;;;;5068662;28;20239;-54
2022/06/09 12:56:18;;;;;;;5.27;1.30;;;20.70;99.90;;;;;;5076955;28;20729;-54
2022/06/09 12:58:48;;;;;;;1.80;1.00;;;20.70;1.00;;;;;;5066889;28;20218;-53
2022/06/09 13:01:19;;;;;;;2.70;0.93;;;20.60;99.90;;;;;;5071953;28;20628;-54
2022/06/09 13:03:55;;;;;;;2.93;0.87;;;20.40;1.00;;;;;;5073518;28;20263;-54
2022/06/09 13:06:35;;;;;;;1.93;0.77;;;20.10;1.00;;;;;;5075691;28;20535;-53
2022/06/09 13:09:33;;;;;;;4.77;1.30;;;20.10;1.00;;;;;;5069277;28;20281;-54
2022/06/09 13:14:52;;;;;;;2.53;1.07;;;20.40;1.00;;;;;;5073150;28;20199;-53
2022/06/09 13:17:26;;;;;;;2.50;1.03;;;20.30;95.10;;;;;;5060291;28;20534;-53
2022/06/09 13:20:03;;;;;;;6.77;1.90;;;20.20;99.90;;;;;;5066272;28;20199;-56
2022/06/09 13:22:32;;;;;;;4.90;0.97;;;20.30;99.90;;;;;;5073117;28;20766;-55
2022/06/09 13:25:00;;;;;;;4.80;1.03;;;20.40;99.90;;;;;;5068050;28;20719;-54
2022/06/09 13:27:30;;;;;;;5.13;0.90;;;20.90;92.70;;;;;;5073386;28;20205;-52
2022/06/09 13:29:57;;;;;;;3.70;1.10;;;21.30;99.90;;;;;;5074655;28;20553;-54
2022/06/09 13:32:29;;;;;;;5.10;1.40;;;21.60;1.00;;;;;;5073289;28;20246;-54
2022/06/09 13:34:59;;;;;;;2.43;0.90;;;21.70;1.00;;;;;;5074416;28;20197;-51
2022/06/09 13:37:43;;;;;;;5.97;0.93;;;21.80;1.00;;;;;;5071078;28;20295;-55
2022/06/09 13:40:19;;;;;;;5.77;1.23;;;21.00;1.00;;;;;;5065871;28;20304;-49
2022/06/09 13:42:59;;;;;;;2.50;1.00;;;21.20;1.00;;;;;;5068180;28;21068;-51